Time;durP1;ratioP1;P1;durP2;ratioP2;P2;SDS_P1;SDS_P2;PMS_P1;PMS_P2;Temp;Humidity;BMP_temperature;BMP_pressure;BME280_temperature;BME280_humidity;BME280_pressure;Samples;Min_cycle;Max_cycle;Signal;HPM_P1;HPM_P2
2023/01/19 00:00:38;;;;;;;4.00;1.65;;;16.20;49.20;;;;;;5103209;27;46351;-69
2023/01/19 00:03:14;;;;;;;1.95;1.38;;;16.20;49.10;;;;;;5102714;27;45793;-69
2023/01/19 00:05:41;;;;;;;2.03;1.45;;;16.30;49.20;;;;;;5090855;27;45338;-69
2023/01/19 00:08:14;;;;;;;2.55;1.48;;;16.30;49.20;;;;;;5094735;27;45649;-69
2023/01/19 00:10:41;;;;;;;2.72;1.40;;;16.30;49.20;;;;;;5101232;27;47205;-69
2023/01/19 00:13:08;;;;;;;4.68;1.67;;;16.30;49.20;;;;;;5101740;27;45426;-69
2023/01/19 00:15:35;;;;;;;3.22;1.60;;;16.30;49.00;;;;;;5098932;27;45446;-70
2023/01/19 00:18:01;;;;;;;3.03;1.67;;;16.30;49.10;;;;;;5103807;27;45310;-69
2023/01/19 00:20:30;;;;;;;1.85;1.30;;;16.40;49.20;;;;;;5103217;27;45430;-69
2023/01/19 00:22:57;;;;;;;2.13;1.50;;;16.30;49.00;;;;;;5103250;27;45248;-69
2023/01/19 00:25:25;;;;;;;2.33;1.48;;;16.30;48.90;;;;;;5102829;27;45445;-69
2023/01/19 00:27:52;;;;;;;2.40;1.50;;;16.30;49.00;;;;;;5103605;27;45392;-69
2023/01/19 00:30:19;;;;;;;3.40;1.50;;;16.30;49.00;;;;;;5099243;27;45478;-69
2023/01/19 00:32:46;;;;;;;2.72;1.55;;;16.30;49.00;;;;;;5091832;27;45620;-69
2023/01/19 00:35:13;;;;;;;3.95;1.60;;;16.30;49.10;;;;;;5102598;27;45393;-69
2023/01/19 00:37:39;;;;;;;2.95;1.50;;;16.20;49.10;;;;;;5102983;27;45412;-69
2023/01/19 00:40:08;;;;;;;2.85;1.50;;;16.20;49.10;;;;;;5100846;27;48037;-69
2023/01/19 00:42:43;;;;;;;2.72;1.58;;;16.20;49.10;;;;;;5094458;27;45411;-69
2023/01/19 00:45:12;;;;;;;2.33;1.48;;;16.20;49.10;;;;;;5099390;27;45328;-69
2023/01/19 00:47:39;;;;;;;2.03;1.50;;;16.20;49.10;;;;;;5090611;27;45393;-69
2023/01/19 00:50:07;;;;;;;1.77;1.38;;;16.20;49.20;;;;;;5098979;27;45569;-69
2023/01/19 00:52:33;;;;;;;2.47;1.42;;;16.20;49.20;;;;;;5097503;27;45331;-69
2023/01/19 00:55:00;;;;;;;2.85;1.42;;;16.20;49.10;;;;;;5099840;27;45334;-69
2023/01/19 00:57:28;;;;;;;2.35;1.73;;;16.20;49.10;;;;;;5103414;27;45561;-69
2023/01/19 00:59:56;;;;;;;1.75;1.40;;;16.30;49.10;;;;;;5103059;27;45418;-69
2023/01/19 01:02:23;;;;;;;2.45;1.30;;;16.30;49.00;;;;;;5102310;27;45484;-69
2023/01/19 01:04:53;;;;;;;2.58;1.40;;;16.30;48.90;;;;;;5096226;27;45452;-70
2023/01/19 01:07:20;;;;;;;1.75;1.20;;;16.30;48.90;;;;;;5102915;27;45322;-70
2023/01/19 01:09:47;;;;;;;2.10;1.30;;;16.30;48.90;;;;;;5102534;27;45381;-69
2023/01/19 01:12:14;;;;;;;3.08;1.70;;;16.30;48.80;;;;;;5103185;27;45261;-69
2023/01/19 01:14:41;;;;;;;3.75;1.30;;;16.30;48.80;;;;;;5102811;27;45334;-69
2023/01/19 01:17:10;;;;;;;2.70;1.23;;;16.30;48.90;;;;;;5102391;27;45610;-69
2023/01/19 01:19:37;;;;;;;1.77;1.23;;;16.30;48.80;;;;;;5101866;27;48615;-70
2023/01/19 01:22:04;;;;;;;2.17;1.33;;;16.30;48.90;;;;;;5096866;27;45268;-69
2023/01/19 01:24:30;;;;;;;3.00;1.50;;;16.30;49.00;;;;;;5102960;27;45347;-69
2023/01/19 01:26:58;;;;;;;2.03;1.30;;;16.30;49.00;;;;;;5102892;27;45333;-69
2023/01/19 01:29:24;;;;;;;2.67;1.45;;;16.20;49.00;;;;;;5105984;27;46598;-69
2023/01/19 01:31:51;;;;;;;1.58;1.17;;;16.20;49.00;;;;;;5105809;27;45322;-68
2023/01/19 01:34:19;;;;;;;2.10;1.25;;;16.20;49.10;;;;;;5106402;27;45347;-69
2023/01/19 01:36:46;;;;;;;2.65;1.23;;;16.20;49.20;;;;;;5100951;27;45453;-69
2023/01/19 01:39:13;;;;;;;5.88;1.45;;;16.20;49.20;;;;;;5093229;27;46273;-69
2023/01/19 01:41:40;;;;;;;1.63;1.30;;;16.20;49.20;;;;;;5104966;27;45364;-69
2023/01/19 01:44:48;;;;;;;2.78;1.30;;;16.20;49.10;;;;;;5105816;27;45453;-69
2023/01/19 01:47:16;;;;;;;4.70;1.30;;;16.20;49.10;;;;;;5097497;27;45335;-70
2023/01/19 01:49:45;;;;;;;2.85;1.40;;;16.20;49.10;;;;;;5105412;27;46607;-69
2023/01/19 01:52:14;;;;;;;2.50;1.48;;;16.20;49.10;;;;;;5105489;27;45388;-69
2023/01/19 01:54:42;;;;;;;2.38;1.25;;;16.30;49.00;;;;;;5105183;27;45536;-69
2023/01/19 01:57:11;;;;;;;1.70;1.23;;;16.30;49.00;;;;;;5099651;27;45458;-69
2023/01/19 01:59:43;;;;;;;1.60;1.20;;;16.30;48.90;;;;;;5105366;27;46560;-69
2023/01/19 02:05:05;;;;;;;3.38;1.33;;;16.30;48.80;;;;;;5104906;27;45512;-69
2023/01/19 02:13:22;;;;;;;3.70;1.67;;;16.30;48.60;;;;;;5099834;27;45383;-69
2023/01/19 02:15:51;;;;;;;2.08;1.38;;;16.30;48.60;;;;;;5103897;27;45425;-69
2023/01/19 02:18:19;;;;;;;2.63;1.40;;;16.30;48.70;;;;;;5093651;27;45392;-69
2023/01/19 02:20:56;;;;;;;1.60;1.30;;;16.30;48.90;;;;;;5095049;27;46070;-69
2023/01/19 02:23:45;;;;;;;2.75;1.30;;;16.30;48.80;;;;;;5100155;27;45272;-69
2023/01/19 02:26:15;;;;;;;2.60;1.40;;;16.20;48.90;;;;;;5092376;27;45357;-69
2023/01/19 02:28:44;;;;;;;2.20;1.20;;;16.20;48.80;;;;;;5094345;27;45399;-69
2023/01/19 02:31:11;;;;;;;1.17;0.98;;;16.20;49.00;;;;;;5100470;27;48061;-69
2023/01/19 02:33:38;;;;;;;2.70;1.33;;;16.20;49.10;;;;;;5104037;27;45455;-69
2023/01/19 02:36:08;;;;;;;1.27;0.90;;;16.20;49.00;;;;;;5090851;27;45392;-69
2023/01/19 02:38:35;;;;;;;1.60;1.00;;;16.20;49.00;;;;;;5097860;27;45566;-69
2023/01/19 02:41:06;;;;;;;1.10;1.00;;;16.20;49.00;;;;;;5095675;27;46572;-69
2023/01/19 02:43:34;;;;;;;1.80;1.13;;;16.10;48.90;;;;;;5097190;27;45430;-69
2023/01/19 02:46:01;;;;;;;1.23;0.80;;;16.20;49.10;;;;;;5100537;27;45509;-69
2023/01/19 02:48:28;;;;;;;1.25;0.85;;;16.20;49.10;;;;;;5103182;27;45264;-69
2023/01/19 02:50:59;;;;;;;2.17;1.08;;;16.20;49.10;;;;;;5096634;27;45221;-69
2023/01/19 02:53:42;;;;;;;2.65;1.20;;;16.30;48.90;;;;;;5100023;27;45481;-69
2023/01/19 02:56:39;;;;;;;2.67;1.08;;;16.30;49.10;;;;;;5104046;27;45425;-69
2023/01/19 02:59:14;;;;;;;2.30;1.27;;;16.30;49.00;;;;;;5099399;27;45449;-69
2023/01/19 03:01:52;;;;;;;1.27;0.90;;;16.30;48.90;;;;;;5104056;27;46855;-69
2023/01/19 03:04:28;;;;;;;1.77;0.95;;;16.30;48.80;;;;;;5103482;27;45490;-69
2023/01/19 03:07:01;;;;;;;1.58;0.90;;;16.30;48.80;;;;;;5104251;27;45295;-69
2023/01/19 03:09:33;;;;;;;1.45;1.00;;;16.30;48.80;;;;;;5102075;27;45298;-69
2023/01/19 03:12:05;;;;;;;3.30;1.38;;;16.30;48.80;;;;;;5104260;27;46279;-69
2023/01/19 03:14:33;;;;;;;2.00;1.10;;;16.30;48.80;;;;;;5104337;27;45234;-69
2023/01/19 03:17:04;;;;;;;2.20;0.90;;;16.30;48.60;;;;;;5103605;27;45584;-69
2023/01/19 03:19:36;;;;;;;1.65;1.00;;;16.20;48.50;;;;;;5094927;27;45258;-69
2023/01/19 03:25:43;;;;;;;2.25;1.00;;;16.20;48.40;;;;;;5088264;27;45220;-69
2023/01/19 03:28:14;;;;;;;1.55;1.00;;;16.20;48.40;;;;;;5096509;27;45311;-69
2023/01/19 03:30:47;;;;;;;1.50;0.90;;;16.20;48.70;;;;;;5104553;27;45348;-69
2023/01/19 03:33:17;;;;;;;1.90;1.05;;;16.20;48.90;;;;;;5104371;27;46238;-69
2023/01/19 03:35:48;;;;;;;1.35;0.95;;;16.20;48.90;;;;;;5105463;27;45290;-69
2023/01/19 03:38:18;;;;;;;3.75;1.20;;;16.20;49.00;;;;;;5092457;27;45403;-69
2023/01/19 03:40:47;;;;;;;1.55;1.10;;;16.20;48.70;;;;;;5089776;27;45710;-69
2023/01/19 03:43:16;;;;;;;1.65;1.10;;;16.20;48.50;;;;;;5103715;27;46505;-69
2023/01/19 03:45:44;;;;;;;1.83;1.20;;;16.20;48.30;;;;;;5102997;27;45386;-69
2023/01/19 03:48:10;;;;;;;2.25;1.10;;;16.30;48.50;;;;;;5103779;27;45430;-69
2023/01/19 03:50:37;;;;;;;2.53;1.42;;;16.20;48.40;;;;;;5101717;27;45585;-69
2023/01/19 03:53:09;;;;;;;2.45;1.05;;;16.20;48.30;;;;;;5095660;27;45341;-70
2023/01/19 03:55:38;;;;;;;2.42;0.90;;;16.30;48.40;;;;;;5094948;27;45536;-69
2023/01/19 03:58:05;;;;;;;2.67;1.00;;;16.30;48.50;;;;;;5096259;27;45404;-69
2023/01/19 04:00:35;;;;;;;1.80;1.00;;;16.30;48.50;;;;;;5104373;27;45459;-69
2023/01/19 04:03:02;;;;;;;2.25;1.10;;;16.30;48.40;;;;;;5101825;27;45494;-69
2023/01/19 04:05:29;;;;;;;2.22;1.30;;;16.30;48.00;;;;;;5098217;27;45281;-69
2023/01/19 04:07:55;;;;;;;2.58;0.95;;;16.30;49.20;;;;;;5103761;27;45398;-69
2023/01/19 04:10:23;;;;;;;2.38;1.15;;;16.20;47.80;;;;;;5104077;27;45357;-69
2023/01/19 04:12:50;;;;;;;1.90;1.30;;;16.20;47.90;;;;;;5097205;27;48010;-69
2023/01/19 04:15:17;;;;;;;1.60;1.20;;;16.20;48.10;;;;;;5092377;27;45280;-70
2023/01/19 04:17:45;;;;;;;2.67;1.38;;;16.20;48.00;;;;;;5102610;27;45269;-69
2023/01/19 04:20:12;;;;;;;2.03;1.25;;;16.10;47.40;;;;;;5094200;27;45245;-69
2023/01/19 04:22:39;;;;;;;2.38;1.30;;;16.10;47.30;;;;;;5098364;27;47875;-69
2023/01/19 04:25:07;;;;;;;2.45;1.15;;;16.10;47.10;;;;;;5088309;27;45297;-69
2023/01/19 04:27:35;;;;;;;4.22;1.63;;;16.00;46.80;;;;;;5095295;27;45380;-69
2023/01/19 04:30:03;;;;;;;3.22;1.17;;;16.00;46.80;;;;;;5090015;27;45467;-69
2023/01/19 04:32:30;;;;;;;5.22;1.80;;;16.00;46.60;;;;;;5099135;27;45461;-69
2023/01/19 04:34:58;;;;;;;1.52;1.10;;;16.00;46.60;;;;;;5094535;27;45375;-69
2023/01/19 04:37:25;;;;;;;3.90;1.35;;;16.00;46.60;;;;;;5099707;27;45418;-69
2023/01/19 04:39:52;;;;;;;2.90;1.50;;;16.00;46.70;;;;;;5099268;27;45368;-69
2023/01/19 04:42:19;;;;;;;2.25;1.38;;;16.00;47.00;;;;;;5102466;27;46300;-69
2023/01/19 04:44:45;;;;;;;2.35;1.40;;;16.00;46.80;;;;;;5102190;27;45391;-69
2023/01/19 04:47:12;;;;;;;2.00;1.30;;;16.00;46.60;;;;;;5096869;27;45382;-69
2023/01/19 04:49:39;;;;;;;4.53;1.73;;;16.00;46.60;;;;;;5103246;27;45410;-69
2023/01/19 04:52:08;;;;;;;3.20;1.30;;;16.00;46.60;;;;;;5102634;27;48105;-69
2023/01/19 04:54:34;;;;;;;3.83;1.92;;;16.00;46.60;;;;;;5100754;27;45453;-69
2023/01/19 04:57:01;;;;;;;2.67;1.52;;;16.00;46.50;;;;;;5098946;27;45300;-69
2023/01/19 04:59:28;;;;;;;3.20;1.95;;;16.00;46.20;;;;;;5093703;27;45528;-69
2023/01/19 05:01:55;;;;;;;3.75;1.65;;;16.00;46.10;;;;;;5095421;27;46400;-69
2023/01/19 05:04:22;;;;;;;2.25;1.50;;;16.00;45.90;;;;;;5092965;27;45363;-69
2023/01/19 05:06:50;;;;;;;4.25;1.67;;;16.00;45.90;;;;;;5103950;27;45423;-69
2023/01/19 05:09:18;;;;;;;3.85;1.70;;;16.00;45.90;;;;;;5106247;27;45347;-68
2023/01/19 05:11:45;;;;;;;5.93;2.08;;;16.00;45.90;;;;;;5104922;27;46288;-69
2023/01/19 05:14:12;;;;;;;5.10;2.20;;;15.90;45.70;;;;;;5106576;27;45348;-68
2023/01/19 05:16:39;;;;;;;4.68;2.20;;;15.90;45.90;;;;;;5105312;27;45280;-69
2023/01/19 05:19:05;;;;;;;3.40;2.10;;;15.90;45.90;;;;;;5104323;27;45292;-69
2023/01/19 05:21:32;;;;;;;4.10;2.10;;;15.90;45.90;;;;;;5102415;27;47149;-69
2023/01/19 05:23:59;;;;;;;6.40;2.03;;;15.90;45.90;;;;;;5106285;27;45264;-69
2023/01/19 05:26:27;;;;;;;7.97;2.53;;;15.90;45.90;;;;;;5104480;27;45301;-69
2023/01/19 05:28:54;;;;;;;2.70;2.00;;;15.90;45.90;;;;;;5106428;27;45462;-69
2023/01/19 05:31:20;;;;;;;3.42;1.80;;;15.90;45.90;;;;;;5106168;27;45481;-69
2023/01/19 05:33:48;;;;;;;4.82;2.13;;;15.90;46.00;;;;;;5106055;27;45383;-69
2023/01/19 05:36:15;;;;;;;3.70;1.95;;;15.90;45.90;;;;;;5099298;27;45474;-69
2023/01/19 05:38:41;;;;;;;3.85;2.13;;;15.90;46.00;;;;;;5102278;27;45416;-69
2023/01/19 05:41:08;;;;;;;2.45;2.00;;;15.90;45.90;;;;;;5097810;27;46656;-69
2023/01/19 05:43:36;;;;;;;3.60;1.70;;;15.90;46.00;;;;;;5095253;27;45443;-69
2023/01/19 05:46:04;;;;;;;3.25;1.73;;;15.90;45.90;;;;;;5098914;27;45494;-69
2023/01/19 05:48:31;;;;;;;2.63;1.70;;;15.90;46.00;;;;;;5097627;27;45468;-69
2023/01/19 05:50:58;;;;;;;3.67;1.90;;;15.90;46.30;;;;;;5096295;27;47518;-68
2023/01/19 05:53:25;;;;;;;3.05;2.00;;;15.90;46.60;;;;;;5104162;27;46165;-68
2023/01/19 05:55:52;;;;;;;1.90;1.60;;;15.90;46.70;;;;;;5102913;27;45563;-69
2023/01/19 05:58:19;;;;;;;3.08;2.10;;;15.90;46.50;;;;;;5103610;27;45581;-69
2023/01/19 06:00:47;;;;;;;2.92;1.60;;;15.90;46.50;;;;;;5102429;27;47474;-69
2023/01/19 06:03:14;;;;;;;2.80;1.85;;;15.90;46.40;;;;;;5106679;27;45432;-69
2023/01/19 06:05:40;;;;;;;2.17;1.58;;;15.90;46.30;;;;;;5108862;27;45444;-69
2023/01/19 06:08:07;;;;;;;2.95;1.70;;;15.90;46.30;;;;;;5110332;27;45248;-69
2023/01/19 06:10:34;;;;;;;2.15;1.58;;;15.90;46.00;;;;;;5104319;27;46157;-68
2023/01/19 06:13:01;;;;;;;3.70;1.63;;;15.90;46.00;;;;;;5114159;27;45429;-69
2023/01/19 06:15:27;;;;;;;2.97;1.70;;;15.90;45.90;;;;;;5104856;27;45544;-69
2023/01/19 06:17:55;;;;;;;2.83;1.70;;;15.90;45.70;;;;;;5101840;27;45448;-69
2023/01/19 06:20:22;;;;;;;2.28;1.67;;;15.90;45.60;;;;;;5105031;27;46452;-68
2023/01/19 06:22:49;;;;;;;2.88;1.73;;;15.90;45.60;;;;;;5111159;27;46223;-69
2023/01/19 06:25:16;;;;;;;4.68;1.80;;;15.90;45.60;;;;;;5104705;27;45469;-69
2023/01/19 06:27:44;;;;;;;2.22;1.52;;;15.90;45.60;;;;;;5098535;27;45490;-68
2023/01/19 06:30:12;;;;;;;2.28;1.40;;;15.90;45.70;;;;;;5100567;27;48499;-68
2023/01/19 06:32:39;;;;;;;2.05;1.45;;;15.90;45.70;;;;;;5091893;27;45272;-69
2023/01/19 06:35:08;;;;;;;1.92;1.42;;;15.90;45.70;;;;;;5095689;27;45434;-69
2023/01/19 06:37:35;;;;;;;1.85;1.33;;;15.80;45.60;;;;;;5103847;27;45302;-69
2023/01/19 06:40:01;;;;;;;2.10;1.50;;;15.90;45.50;;;;;;5104349;27;45384;-69
2023/01/19 06:42:28;;;;;;;2.08;1.20;;;15.90;45.50;;;;;;5108972;27;45446;-69
2023/01/19 06:44:55;;;;;;;2.33;1.20;;;15.90;45.50;;;;;;5106411;27;45362;-69
2023/01/19 06:47:22;;;;;;;2.92;1.77;;;15.90;45.60;;;;;;5105669;27;45431;-69
2023/01/19 06:49:48;;;;;;;3.10;1.30;;;15.90;45.70;;;;;;5112357;27;45348;-68
2023/01/19 06:52:18;;;;;;;2.20;1.60;;;15.90;45.70;;;;;;5105088;27;46099;-69
2023/01/19 06:54:46;;;;;;;1.65;1.38;;;16.00;45.80;;;;;;5104739;27;45332;-68
2023/01/19 06:57:13;;;;;;;3.03;1.80;;;16.00;45.70;;;;;;5110674;27;45586;-68
2023/01/19 06:59:40;;;;;;;2.15;1.50;;;16.00;45.70;;;;;;5105536;27;46435;-69
2023/01/19 07:02:07;;;;;;;2.25;1.50;;;16.00;45.60;;;;;;5094126;27;45738;-69
2023/01/19 07:04:33;;;;;;;1.90;1.45;;;16.00;45.60;;;;;;5100951;27;45498;-69
2023/01/19 07:07:00;;;;;;;2.10;1.48;;;16.00;45.60;;;;;;5111936;27;45625;-69
2023/01/19 07:09:28;;;;;;;2.13;1.50;;;16.00;45.60;;;;;;5104088;27;47509;-68
2023/01/19 07:11:55;;;;;;;3.58;1.38;;;16.00;45.70;;;;;;5104158;27;45780;-69
2023/01/19 07:14:22;;;;;;;2.03;1.50;;;15.90;45.50;;;;;;5104512;27;45298;-69
2023/01/19 07:16:49;;;;;;;1.80;1.17;;;16.00;45.70;;;;;;5103625;27;45361;-69
2023/01/19 07:19:15;;;;;;;2.92;1.80;;;16.00;45.70;;;;;;5098481;27;47306;-69
2023/01/19 07:21:42;;;;;;;3.15;1.70;;;16.00;45.60;;;;;;5103975;27;45341;-69
2023/01/19 07:24:09;;;;;;;2.17;1.50;;;16.00;45.60;;;;;;5104484;27;45219;-68
2023/01/19 07:26:37;;;;;;;2.78;1.73;;;16.00;45.60;;;;;;5103005;27;45669;-68
2023/01/19 07:29:04;;;;;;;2.70;1.98;;;15.90;45.60;;;;;;5096288;27;47084;-69
2023/01/19 07:31:30;;;;;;;2.13;1.70;;;15.90;45.50;;;;;;5104197;27;45437;-69
2023/01/19 07:33:57;;;;;;;2.90;1.92;;;15.90;45.40;;;;;;5103354;27;45372;-69
2023/01/19 07:36:24;;;;;;;3.15;1.88;;;15.90;45.30;;;;;;5097510;27;45590;-69
2023/01/19 07:38:51;;;;;;;2.05;1.67;;;15.90;45.30;;;;;;5104112;27;47127;-69
2023/01/19 07:41:18;;;;;;;2.78;2.03;;;15.90;45.10;;;;;;5096132;27;45459;-68
2023/01/19 07:43:46;;;;;;;3.05;2.10;;;15.90;45.10;;;;;;5102606;27;45362;-69
2023/01/19 07:46:13;;;;;;;2.20;1.75;;;15.90;45.10;;;;;;5103592;27;45324;-69
2023/01/19 07:48:39;;;;;;;3.08;2.00;;;15.90;45.00;;;;;;5098918;27;45355;-69
2023/01/19 07:51:10;;;;;;;3.00;1.80;;;15.80;45.00;;;;;;5104010;27;45368;-69
2023/01/19 07:53:38;;;;;;;3.30;1.80;;;15.80;45.00;;;;;;5097748;27;45423;-69
2023/01/19 07:56:06;;;;;;;3.30;1.95;;;15.90;45.30;;;;;;5103385;27;45452;-69
2023/01/19 07:58:33;;;;;;;3.63;2.13;;;15.90;45.60;;;;;;5103426;27;45273;-69
2023/01/19 08:01:05;;;;;;;3.20;1.92;;;15.90;46.20;;;;;;5103639;27;45357;-69
2023/01/19 08:03:32;;;;;;;2.40;1.75;;;15.90;46.10;;;;;;5103142;27;45430;-69
2023/01/19 08:05:59;;;;;;;2.85;2.10;;;15.90;46.10;;;;;;5101827;27;45298;-69
2023/01/19 08:08:25;;;;;;;3.42;1.90;;;15.90;45.90;;;;;;5103566;27;46264;-69
2023/01/19 08:10:53;;;;;;;4.78;2.10;;;15.90;45.90;;;;;;5097181;27;45492;-69
2023/01/19 08:13:19;;;;;;;6.22;2.30;;;15.90;45.80;;;;;;5103734;27;45335;-68
2023/01/19 08:15:50;;;;;;;4.70;2.58;;;15.90;45.60;;;;;;5102741;27;45422;-69
2023/01/19 08:18:18;;;;;;;2.53;1.85;;;15.90;45.50;;;;;;5103491;27;48254;-68
2023/01/19 08:20:45;;;;;;;2.47;1.83;;;15.80;45.40;;;;;;5103411;27;45354;-68
2023/01/19 08:23:12;;;;;;;4.15;2.55;;;15.80;45.40;;;;;;5103500;27;45526;-69
2023/01/19 08:25:43;;;;;;;3.10;2.10;;;15.80;45.30;;;;;;5102834;27;45622;-69
2023/01/19 08:28:11;;;;;;;3.67;2.20;;;15.80;45.30;;;;;;5097346;27;48064;-69
2023/01/19 08:30:38;;;;;;;3.88;2.10;;;15.80;45.20;;;;;;5103262;27;45239;-69
2023/01/19 08:33:06;;;;;;;2.97;2.00;;;15.80;45.20;;;;;;5103254;27;45379;-69
2023/01/19 08:35:36;;;;;;;3.50;2.00;;;15.80;45.20;;;;;;5102561;27;45455;-69
2023/01/19 08:38:04;;;;;;;3.55;2.13;;;15.80;45.30;;;;;;5101709;27;47372;-69
2023/01/19 08:40:32;;;;;;;2.83;2.30;;;15.80;45.20;;;;;;5103399;27;45413;-68
2023/01/19 08:43:02;;;;;;;2.90;1.92;;;15.80;45.20;;;;;;5102120;27;45506;-68
2023/01/19 08:45:29;;;;;;;4.05;2.03;;;15.80;45.20;;;;;;5097790;27;45421;-70
2023/01/19 08:47:57;;;;;;;3.67;2.08;;;15.80;45.20;;;;;;5103270;27;46643;-68
2023/01/19 08:50:24;;;;;;;3.40;2.17;;;15.80;45.20;;;;;;5103065;27;45319;-69
2023/01/19 08:52:52;;;;;;;4.22;1.92;;;15.80;45.30;;;;;;5103135;27;45328;-69
2023/01/19 08:55:19;;;;;;;3.83;2.45;;;15.80;45.20;;;;;;5103104;27;45676;-69
2023/01/19 08:57:46;;;;;;;3.85;2.50;;;15.80;45.20;;;;;;5102834;27;45558;-68
2023/01/19 09:00:14;;;;;;;6.43;2.67;;;15.90;45.30;;;;;;5099839;27;45363;-68
2023/01/19 09:02:41;;;;;;;5.28;2.55;;;15.80;45.20;;;;;;5093023;27;45299;-69
2023/01/19 09:05:08;;;;;;;5.00;2.45;;;15.80;45.20;;;;;;5101425;27;45429;-68
2023/01/19 09:07:35;;;;;;;4.28;2.38;;;15.80;45.20;;;;;;5103041;27;46308;-69
2023/01/19 09:10:04;;;;;;;5.22;2.97;;;15.90;45.10;;;;;;5094719;27;45399;-69
2023/01/19 09:12:31;;;;;;;3.95;2.60;;;15.90;45.00;;;;;;5102975;27;45284;-68
2023/01/19 09:14:58;;;;;;;5.97;3.40;;;15.80;44.90;;;;;;5102670;27;45220;-69
2023/01/19 09:17:25;;;;;;;5.75;3.20;;;15.80;44.90;;;;;;5098230;27;46271;-69
2023/01/19 09:19:51;;;;;;;7.80;3.10;;;15.80;44.90;;;;;;5101411;27;45291;-69
2023/01/19 09:22:18;;;;;;;6.00;3.33;;;15.80;45.40;;;;;;5103012;27;45442;-68
2023/01/19 09:24:45;;;;;;;5.22;3.10;;;15.80;45.70;;;;;;5102469;27;45248;-69
2023/01/19 09:27:13;;;;;;;5.93;3.38;;;15.80;45.80;;;;;;5102294;27;45526;-69
2023/01/19 09:29:40;;;;;;;6.90;3.38;;;15.80;45.60;;;;;;5102655;27;45421;-69
2023/01/19 09:32:07;;;;;;;7.45;3.28;;;15.70;45.40;;;;;;5102681;27;45438;-69
2023/01/19 09:34:34;;;;;;;7.90;3.67;;;15.70;45.30;;;;;;5097073;27;45491;-69
2023/01/19 09:37:02;;;;;;;7.15;3.72;;;15.70;45.30;;;;;;5101562;27;45374;-69
2023/01/19 09:39:29;;;;;;;7.05;3.58;;;15.70;45.10;;;;;;5102727;27;45355;-69
2023/01/19 09:42:05;;;;;;;7.38;3.70;;;15.70;45.30;;;;;;5100562;27;45428;-69
2023/01/19 09:44:35;;;;;;;6.95;3.38;;;15.70;45.00;;;;;;5102703;27;45297;-69
2023/01/19 09:47:13;;;;;;;5.32;3.22;;;15.70;45.10;;;;;;5102001;27;46306;-69
2023/01/19 09:49:43;;;;;;;5.05;3.33;;;15.70;45.10;;;;;;5104907;27;45307;-68
2023/01/19 09:52:12;;;;;;;6.88;3.50;;;15.80;45.00;;;;;;5099999;27;45307;-69
2023/01/19 09:54:46;;;;;;;8.10;4.10;;;15.80;45.00;;;;;;5106048;27;45383;-69
2023/01/19 09:57:13;;;;;;;8.02;3.72;;;15.80;44.80;;;;;;5105284;27;45402;-69
2023/01/19 09:59:42;;;;;;;7.30;3.55;;;15.80;44.80;;;;;;5105707;27;45313;-69
2023/01/19 10:02:35;;;;;;;5.40;3.47;;;15.90;45.00;;;;;;5103823;27;45335;-69
2023/01/19 10:05:03;;;;;;;5.53;3.63;;;15.90;44.90;;;;;;5095818;27;45307;-69
2023/01/19 10:07:42;;;;;;;6.97;3.72;;;15.90;44.80;;;;;;5105372;27;47983;-68
2023/01/19 10:10:19;;;;;;;6.70;3.47;;;15.80;44.80;;;;;;5099194;27;45937;-69
2023/01/19 10:12:57;;;;;;;7.85;3.55;;;15.80;44.80;;;;;;5105315;27;45489;-68
2023/01/19 10:15:37;;;;;;;7.15;3.10;;;15.80;44.90;;;;;;5098616;27;45431;-69
2023/01/19 10:18:18;;;;;;;5.28;3.28;;;15.80;44.90;;;;;;5096843;27;46053;-68
2023/01/19 10:20:50;;;;;;;6.20;3.45;;;15.80;45.00;;;;;;5097664;27;45425;-69
2023/01/19 10:23:35;;;;;;;7.30;3.70;;;15.80;45.00;;;;;;5095757;27;45367;-69
2023/01/19 10:26:09;;;;;;;6.25;3.33;;;15.80;45.00;;;;;;5096088;27;45336;-69
2023/01/19 10:28:38;;;;;;;5.97;3.40;;;15.80;45.10;;;;;;5105052;27;46572;-69
2023/01/19 10:31:08;;;;;;;5.88;3.22;;;15.80;45.10;;;;;;5105624;27;45682;-69
2023/01/19 10:33:35;;;;;;;5.75;3.35;;;15.80;45.10;;;;;;5105261;27;45399;-69
2023/01/19 10:36:15;;;;;;;7.25;3.78;;;15.80;45.20;;;;;;5106301;27;45493;-69
2023/01/19 10:38:42;;;;;;;6.93;4.22;;;15.80;45.10;;;;;;5104430;27;45475;-69
2023/01/19 10:41:14;;;;;;;6.10;3.53;;;15.80;45.00;;;;;;5104839;27;45218;-69
2023/01/19 10:43:43;;;;;;;10.95;3.67;;;15.80;45.10;;;;;;5103761;27;45245;-69
2023/01/19 10:46:20;;;;;;;8.30;3.63;;;15.80;45.10;;;;;;5104686;27;45392;-69
2023/01/19 10:48:50;;;;;;;5.20;3.08;;;15.90;45.10;;;;;;5103930;27;46172;-69
2023/01/19 10:51:17;;;;;;;5.70;3.22;;;15.80;45.10;;;;;;5104694;27;45263;-69
2023/01/19 10:53:54;;;;;;;5.60;3.08;;;15.80;45.00;;;;;;5105094;27;45321;-68
2023/01/19 10:56:23;;;;;;;4.80;3.03;;;15.90;45.10;;;;;;5104586;27;45328;-70
2023/01/19 10:58:50;;;;;;;6.15;2.97;;;15.90;45.10;;;;;;5104277;27;46610;-68
2023/01/19 11:01:20;;;;;;;6.38;3.10;;;15.90;45.20;;;;;;5091197;27;45267;-69
2023/01/19 11:03:47;;;;;;;7.45;3.35;;;15.90;45.30;;;;;;5103293;27;45436;-69
2023/01/19 11:06:26;;;;;;;5.78;2.83;;;15.90;45.50;;;;;;5088331;27;45490;-69
2023/01/19 11:09:09;;;;;;;7.82;3.35;;;15.90;45.70;;;;;;5102603;27;46293;-69
2023/01/19 11:11:43;;;;;;;5.65;3.05;;;15.90;45.80;;;;;;5099251;27;45277;-69
2023/01/19 11:14:12;;;;;;;7.95;3.33;;;15.90;45.90;;;;;;5097266;27;45241;-69
2023/01/19 11:16:45;;;;;;;6.65;3.10;;;15.90;46.00;;;;;;5098201;27;45633;-68
2023/01/19 11:19:26;;;;;;;5.28;3.13;;;15.90;46.10;;;;;;5104158;27;46310;-69
2023/01/19 11:21:53;;;;;;;4.80;2.72;;;15.90;46.20;;;;;;5104226;27;45495;-68
2023/01/19 11:24:20;;;;;;;7.68;3.10;;;15.90;46.20;;;;;;5104566;27;45406;-68
2023/01/19 11:26:50;;;;;;;5.88;3.10;;;15.90;46.20;;;;;;5103644;27;45311;-69
2023/01/19 11:29:19;;;;;;;5.82;3.03;;;15.90;46.40;;;;;;5104214;27;48074;-69
2023/01/19 11:31:48;;;;;;;5.88;3.17;;;15.90;46.50;;;;;;5104261;27;45368;-68
2023/01/19 11:34:31;;;;;;;6.28;2.78;;;15.90;46.50;;;;;;5103323;27;45302;-68
2023/01/19 11:37:00;;;;;;;5.05;2.97;;;15.90;46.60;;;;;;5100634;27;45270;-69
2023/01/19 11:39:29;;;;;;;6.18;2.90;;;15.90;46.50;;;;;;5094785;27;45514;-69
2023/01/19 11:41:58;;;;;;;6.05;3.30;;;15.90;46.50;;;;;;5087170;27;45285;-69
2023/01/19 11:44:30;;;;;;;6.10;3.20;;;15.90;46.40;;;;;;5095519;27;45218;-68
2023/01/19 11:47:00;;;;;;;5.82;3.38;;;15.90;46.50;;;;;;5095126;27;45423;-69
2023/01/19 11:49:38;;;;;;;6.70;2.88;;;16.00;46.50;;;;;;5103996;27;45383;-70
2023/01/19 11:52:09;;;;;;;6.03;3.30;;;16.00;46.50;;;;;;5096267;27;45586;-69
2023/01/19 11:54:46;;;;;;;6.88;3.05;;;16.00;46.50;;;;;;5101295;27;45596;-69
2023/01/19 11:57:15;;;;;;;7.57;3.63;;;16.00;46.60;;;;;;5096883;27;45279;-69
2023/01/19 11:59:42;;;;;;;5.15;2.90;;;16.00;46.60;;;;;;5103471;27;45414;-69
2023/01/19 12:02:21;;;;;;;4.32;2.88;;;16.00;46.70;;;;;;5103027;27;45416;-69
2023/01/19 12:04:50;;;;;;;5.75;3.22;;;15.90;46.60;;;;;;5102013;27;45264;-68
2023/01/19 12:07:22;;;;;;;6.40;3.30;;;15.90;46.70;;;;;;5100139;27;45273;-69
2023/01/19 12:09:53;;;;;;;7.55;3.30;;;15.90;46.80;;;;;;5101561;27;47498;-69
2023/01/19 12:12:28;;;;;;;7.85;3.50;;;15.90;46.80;;;;;;5103254;27;45229;-69
2023/01/19 12:14:59;;;;;;;5.32;2.92;;;15.90;46.80;;;;;;5103059;27;45390;-69
2023/01/19 12:17:30;;;;;;;5.05;2.67;;;15.90;46.90;;;;;;5103578;27;45428;-69
2023/01/19 12:20:06;;;;;;;4.65;3.00;;;15.90;46.90;;;;;;5103103;27;47391;-69
2023/01/19 12:22:37;;;;;;;5.80;3.13;;;15.90;47.00;;;;;;5103898;27;45486;-68
2023/01/19 12:25:10;;;;;;;6.82;3.28;;;15.90;48.20;;;;;;5094019;27;45285;-69
2023/01/19 12:27:40;;;;;;;6.97;3.13;;;15.90;47.10;;;;;;5103743;27;45369;-68
2023/01/19 12:30:18;;;;;;;6.13;3.15;;;15.90;47.20;;;;;;5103643;27;45503;-69
2023/01/19 12:32:46;;;;;;;6.25;3.03;;;16.00;47.30;;;;;;5103270;27;45274;-68
2023/01/19 12:35:49;;;;;;;6.03;2.88;;;16.00;47.30;;;;;;5093114;27;45344;-69
2023/01/19 12:38:34;;;;;;;4.82;3.20;;;16.00;47.30;;;;;;5085415;27;45669;-69
2023/01/19 12:41:20;;;;;;;5.32;3.03;;;16.10;47.40;;;;;;5092516;27;45296;-68
2023/01/19 12:43:49;;;;;;;6.95;3.30;;;16.10;47.40;;;;;;5093254;27;45482;-68
2023/01/19 12:46:20;;;;;;;6.30;2.85;;;16.10;47.40;;;;;;5088533;27;45337;-68
2023/01/19 12:48:48;;;;;;;5.72;3.00;;;16.10;47.40;;;;;;5099088;27;45327;-68
2023/01/19 12:51:23;;;;;;;5.88;2.78;;;16.10;47.50;;;;;;5094556;27;45448;-69
2023/01/19 12:53:54;;;;;;;5.80;2.95;;;16.10;47.60;;;;;;5102829;27;45460;-69
2023/01/19 12:56:29;;;;;;;6.18;2.70;;;16.10;47.60;;;;;;5102335;27;45416;-69
2023/01/19 12:58:56;;;;;;;5.18;2.55;;;16.00;47.60;;;;;;5101231;27;45594;-69
2023/01/19 13:01:23;;;;;;;3.83;2.78;;;16.00;47.70;;;;;;5095697;27;47334;-68
2023/01/19 13:04:07;;;;;;;5.72;2.38;;;16.00;47.80;;;;;;5093077;27;45465;-69
2023/01/19 13:07:09;;;;;;;6.15;3.00;;;16.00;47.80;;;;;;5089401;27;45370;-69
2023/01/19 13:09:36;;;;;;;4.07;2.67;;;16.00;47.90;;;;;;5099295;27;45347;-69
2023/01/19 13:12:26;;;;;;;4.72;2.42;;;16.00;48.00;;;;;;5088792;27;46544;-68